Time;durP1;ratioP1;P1;durP2;ratioP2;P2;SDS_P1;SDS_P2;PMS_P1;PMS_P2;Temp;Humidity;BMP_temperature;BMP_pressure;BME280_temperature;BME280_humidity;BME280_pressure;Samples;Min_cycle;Max_cycle;Signal;HPM_P1;HPM_P2
2024/01/05 00:00:32;;;;;;;23.95;14.07;;;;;;;5.83;100.00;99678.16;5006957;28;20115;-78
2024/01/05 00:03:00;;;;;;;2.05;1.95;;;;;;;6.42;100.00;99788.88;5025503;28;20029;-79
2024/01/05 00:05:26;;;;;;;0.60;0.60;;;;;;;6.48;100.00;99808.00;5026137;28;20025;-77
2024/01/05 00:07:53;;;;;;;0.50;0.50;;;;;;;6.51;100.00;99813.28;5020919;28;20049;-77
2024/01/05 00:10:18;;;;;;;0.65;0.55;;;;;;;6.28;100.00;99775.75;5025966;28;20041;-78
2024/01/05 00:12:44;;;;;;;0.20;0.20;;;;;;;6.47;100.00;99815.84;5007600;28;20068;-76
2024/01/05 00:15:13;;;;;;;0.30;0.30;;;;;;;6.48;100.00;99828.88;5002934;28;20147;-77
2024/01/05 00:17:38;;;;;;;1.38;1.38;;;;;;;6.29;100.00;99819.19;5021321;28;20104;-77
2024/01/05 00:20:06;;;;;;;19.45;6.63;;;;;;;5.80;100.00;99728.47;5025211;28;20060;-76
2024/01/05 00:22:32;;;;;;;0.45;0.45;;;;;;;6.39;100.00;99841.84;5007119;28;20125;-76
2024/01/05 00:24:58;;;;;;;0.30;0.30;;;;;;;5.78;100.00;99744.94;5023484;28;20168;-76
2024/01/05 00:27:23;;;;;;;0.30;0.30;;;;;;;6.26;100.00;99829.59;5025031;28;20049;-76
2024/01/05 00:29:49;;;;;;;0.75;0.73;;;;;;;5.52;100.00;99703.06;5023386;28;20085;-75
2024/01/05 00:32:14;;;;;;;0.20;0.20;;;;;;;5.76;100.00;99724.13;5024357;28;20061;-76
2024/01/05 00:34:40;;;;;;;0.30;0.30;;;;;;;5.72;100.00;99725.81;5018039;28;20060;-77
2024/01/05 00:37:05;;;;;;;0.30;0.30;;;;;;;5.83;100.00;99744.13;5007161;28;20045;-78
2024/01/05 00:39:31;;;;;;;0.40;0.40;;;;;;;5.93;100.00;99745.06;5025566;28;20049;-77
2024/01/05 00:41:57;;;;;;;0.38;0.38;;;;;;;5.76;100.00;99720.63;5023887;28;20152;-77
2024/01/05 00:44:23;;;;;;;0.65;0.65;;;;;;;6.39;100.00;99834.03;5017191;28;20584;-77
2024/01/05 00:46:48;;;;;;;0.55;0.55;;;;;;;6.14;100.00;99788.69;5024786;28;20152;-77
2024/01/05 00:49:14;;;;;;;0.60;0.60;;;;;;;6.22;100.00;99846.03;5024949;28;20053;-75
2024/01/05 00:51:39;;;;;;;0.40;0.40;;;;;;;5.79;100.00;99751.91;5020026;28;20486;-77
2024/01/05 00:54:06;;;;;;;0.30;0.30;;;;;;;6.21;100.00;99826.06;5025073;28;20374;-76
2024/01/05 00:56:31;;;;;;;0.60;0.60;;;;;;;6.27;100.00;99852.16;5026058;28;20029;-77
2024/01/05 00:58:57;;;;;;;1.58;1.52;;;;;;;6.29;100.00;99851.31;5011246;28;20568;-77
2024/01/05 01:01:22;;;;;;;1.40;1.15;;;;;;;5.79;100.00;99759.72;5016753;28;20052;-78
2024/01/05 01:03:48;;;;;;;4.68;3.05;;;;;;;6.42;100.00;99857.50;5024876;28;20167;-78
2024/01/05 01:06:13;;;;;;;0.40;0.40;;;;;;;5.98;100.00;99818.94;5027008;28;20761;-77
2024/01/05 01:08:39;;;;;;;5.35;3.40;;;;;;;6.22;100.00;99854.72;5029446;28;20123;-77
2024/01/05 01:11:04;;;;;;;4.53;4.32;;;;;;;5.79;100.00;99778.81;5027227;28;20053;-76
2024/01/05 01:13:30;;;;;;;0.40;0.40;;;;;;;5.65;100.00;99786.47;5025318;28;20069;-77
2024/01/05 01:15:55;;;;;;;0.40;0.40;;;;;;;5.61;100.00;99789.91;5028540;28;20177;-77
2024/01/05 01:18:21;;;;;;;16.10;11.73;;;;;;;5.41;100.00;99729.88;5025856;28;20049;-77
2024/01/05 01:20:46;;;;;;;0.60;0.60;;;;;;;5.72;100.00;99793.50;5026052;28;20089;-77
2024/01/05 01:23:12;;;;;;;0.70;0.70;;;;;;;5.79;100.00;99812.66;5028122;28;20063;-77
2024/01/05 01:25:38;;;;;;;4.90;4.43;;;;;;;5.82;100.00;99797.03;5028604;28;20053;-77
2024/01/05 01:28:04;;;;;;;0.32;0.32;;;;;;;6.28;100.00;99879.97;5026602;28;20153;-77
2024/01/05 01:30:30;;;;;;;31.65;23.67;;;;;;;6.19;100.00;99878.16;5009690;28;20057;-76
2024/01/05 01:32:55;;;;;;;0.40;0.40;;;;;;;5.69;100.00;99816.03;5028405;28;20075;-77
2024/01/05 01:35:21;;;;;;;11.35;10.35;;;;;;;6.15;100.00;99902.41;5026456;28;20036;-78
2024/01/05 01:37:48;;;;;;;0.30;0.30;;;;;;;5.72;100.00;99819.50;5017085;28;20128;-79
2024/01/05 01:40:14;;;;;;;0.50;0.30;;;;;;;5.77;100.00;99823.91;5025763;28;20144;-80
2024/01/05 01:42:44;;;;;;;0.82;0.82;;;;;;;5.77;100.00;99829.09;5024872;28;20050;-79
2024/01/05 01:45:09;;;;;;;0.30;0.30;;;;;;;5.65;100.00;99812.50;5024949;28;20038;-76
2024/01/05 01:47:35;;;;;;;0.40;0.40;;;;;;;5.84;100.00;99843.94;5023431;28;20067;-76
2024/01/05 01:50:01;;;;;;;0.68;0.68;;;;;;;5.71;100.00;99817.78;5027530;28;20479;-76
2024/01/05 01:52:27;;;;;;;0.40;0.40;;;;;;;6.05;100.00;99875.41;5025826;28;20117;-76
2024/01/05 01:54:53;;;;;;;1.20;1.17;;;;;;;6.21;100.00;99896.41;5020669;28;20078;-76
2024/01/05 01:57:18;;;;;;;0.40;0.40;;;;;;;5.76;100.00;99828.25;5027112;28;20463;-76
2024/01/05 01:59:44;;;;;;;0.45;0.32;;;;;;;6.30;100.00;99912.13;5027763;28;20061;-75
2024/01/05 02:02:12;;;;;;;0.22;0.22;;;;;;;6.32;100.00;99916.50;5026210;28;20710;-78
2024/01/05 02:04:38;;;;;;;0.50;0.50;;;;;;;6.32;100.00;99911.28;5018106;28;20049;-78
2024/01/05 02:07:04;;;;;;;0.30;0.30;;;;;;;6.11;100.00;99891.09;5027705;28;20058;-77
2024/01/05 02:09:30;;;;;;;0.60;0.50;;;;;;;6.11;100.00;99872.88;5027529;28;20049;-78
2024/01/05 02:11:56;;;;;;;0.30;0.30;;;;;;;6.37;100.00;99926.97;5026464;28;20036;-79
2024/01/05 02:14:21;;;;;;;0.40;0.40;;;;;;;6.05;100.00;99859.78;5022014;28;20037;-78
2024/01/05 02:16:47;;;;;;;0.20;0.20;;;;;;;6.27;100.00;99914.69;5026829;28;20054;-77
2024/01/05 02:19:12;;;;;;;0.82;0.82;;;;;;;6.45;100.00;99934.84;5022944;28;20042;-77
2024/01/05 02:21:42;;;;;;;5.07;4.82;;;;;;;6.50;100.00;99941.81;5020683;28;20042;-79
2024/01/05 02:24:07;;;;;;;0.65;0.65;;;;;;;6.33;100.00;99938.19;5025597;28;20037;-76
2024/01/05 02:26:33;;;;;;;0.30;0.30;;;;;;;6.31;100.00;99930.34;5026458;28;20112;-77
2024/01/05 02:29:02;;;;;;;1.35;1.35;;;;;;;6.47;100.00;99957.44;5022299;28;20151;-76
2024/01/05 02:31:28;;;;;;;0.65;0.65;;;;;;;6.28;100.00;99924.25;5023896;28;20045;-78
2024/01/05 02:33:53;;;;;;;0.40;0.40;;;;;;;5.05;100.00;99733.81;5022305;28;20049;-76
2024/01/05 02:36:19;;;;;;;1.23;0.55;;;;;;;5.28;100.00;99788.69;5027439;28;20512;-76
2024/01/05 02:38:44;;;;;;;0.20;0.20;;;;;;;6.22;100.00;99926.78;5028112;28;20030;-76
2024/01/05 02:41:10;;;;;;;0.30;0.30;;;;;;;5.75;100.00;99862.91;5018069;28;20049;-77
2024/01/05 02:43:35;;;;;;;0.90;0.90;;;;;;;6.10;100.00;99948.38;5023253;28;20115;-76
2024/01/05 02:46:01;;;;;;;1.33;1.20;;;;;;;5.89;100.00;99903.00;5024939;28;20680;-77
2024/01/05 02:48:26;;;;;;;0.55;0.55;;;;;;;5.83;100.00;99892.53;5023892;28;20038;-76
2024/01/05 02:50:52;;;;;;;0.73;0.50;;;;;;;6.06;100.00;99947.50;5027123;28;20436;-77
2024/01/05 02:53:17;;;;;;;0.20;0.20;;;;;;;6.08;100.00;99953.56;5022682;28;20099;-77
2024/01/05 02:55:43;;;;;;;0.30;0.30;;;;;;;6.26;100.00;99986.75;5026492;28;20051;-77
2024/01/05 02:58:08;;;;;;;0.38;0.38;;;;;;;5.98;100.00;99962.16;5016334;28;20159;-75
2024/01/05 03:00:35;;;;;;;0.50;0.50;;;;;;;5.93;100.00;99959.47;5026236;28;20906;-76
2024/01/05 03:03:01;;;;;;;0.30;0.30;;;;;;;5.99;100.00;99971.69;5026221;28;20037;-76
2024/01/05 03:05:26;;;;;;;2.05;1.85;;;;;;;5.98;100.00;99972.56;5025597;28;20036;-77
2024/01/05 03:07:52;;;;;;;2.58;2.47;;;;;;;5.96;100.00;99989.91;5021956;28;20049;-76
2024/01/05 03:10:18;;;;;;;0.20;0.20;;;;;;;5.89;100.00;99973.28;5026255;28;20041;-77
2024/01/05 03:12:43;;;;;;;0.47;0.47;;;;;;;5.92;100.00;99993.28;5018678;28;20065;-75
2024/01/05 03:15:09;;;;;;;0.35;0.35;;;;;;;5.54;100.00;99917.34;5022162;28;20025;-76
2024/01/05 03:17:34;;;;;;;0.65;0.47;;;;;;;5.56;100.00;99928.66;5025881;28;20067;-76
2024/01/05 03:20:00;;;;;;;1.15;1.15;;;;;;;5.86;100.00;99983.69;5025874;28;20936;-75
2024/01/05 03:22:26;;;;;;;1.40;1.40;;;;;;;5.22;100.00;99889.16;5026067;28;20041;-77
2024/01/05 03:24:52;;;;;;;0.68;0.68;;;;;;;5.81;100.00;100002.72;5025238;28;20041;-77
2024/01/05 03:27:17;;;;;;;0.35;0.35;;;;;;;4.67;100.00;99813.06;5018036;28;20453;-78
2024/01/05 03:29:43;;;;;;;0.30;0.30;;;;;;;5.55;100.00;99973.72;5024752;28;20493;-78
2024/01/05 03:32:09;;;;;;;0.30;0.30;;;;;;;5.81;100.00;100021.81;5025114;28;20049;-76
2024/01/05 03:34:34;;;;;;;0.30;0.30;;;;;;;5.79;100.00;100033.06;5022059;28;20559;-78
2024/01/05 03:37:00;;;;;;;0.30;0.30;;;;;;;5.30;100.00;99936.97;5025959;28;20485;-78
2024/01/05 03:39:26;;;;;;;0.30;0.30;;;;;;;5.83;100.00;100040.03;5026434;28;20045;-77
2024/01/05 03:41:52;;;;;;;0.55;0.55;;;;;;;5.80;100.00;100038.25;5018743;28;20037;-77
2024/01/05 03:44:20;;;;;;;0.20;0.20;;;;;;;4.97;100.00;99914.00;5015050;28;20094;-77
2024/01/05 03:46:50;;;;;;;4.25;4.00;;;;;;;5.76;100.00;100057.31;5025588;28;20037;-79
2024/01/05 03:49:16;;;;;;;0.30;0.30;;;;;;;5.08;100.00;99936.69;5025183;28;20042;-77
2024/01/05 03:51:42;;;;;;;0.25;0.25;;;;;;;5.06;100.00;99947.94;5022587;28;20052;-76
2024/01/05 03:54:07;;;;;;;2.20;1.45;;;;;;;5.70;100.00;100070.25;5025596;28;20041;-77
2024/01/05 03:56:40;;;;;;;1.48;1.40;;;;;;;5.58;100.00;100063.13;5023851;28;20505;-77
2024/01/05 03:59:07;;;;;;;0.43;0.43;;;;;;;5.05;100.00;99986.03;5023728;28;20053;-77
2024/01/05 04:01:33;;;;;;;0.30;0.30;;;;;;;5.42;100.00;100038.59;5019309;28;20052;-76
2024/01/05 04:03:59;;;;;;;2.15;2.05;;;;;;;5.04;100.00;99962.63;5024898;28;20652;-77
2024/01/05 04:06:25;;;;;;;0.82;0.82;;;;;;;4.96;100.00;99956.41;5025644;28;20060;-76
2024/01/05 04:08:51;;;;;;;0.20;0.20;;;;;;;4.96;100.00;99953.81;5007142;28;20041;-77
2024/01/05 04:11:21;;;;;;;0.30;0.30;;;;;;;4.90;100.00;99964.16;5020543;28;20080;-76
2024/01/05 04:13:47;;;;;;;11.63;4.50;;;;;;;5.34;100.00;100049.75;5017738;28;20048;-77
2024/01/05 04:16:13;;;;;;;20.33;7.88;;;;;;;5.46;100.00;100068.16;5025940;28;20687;-76
2024/01/05 04:18:39;;;;;;;0.30;0.30;;;;;;;5.04;100.00;99991.22;5022111;28;20049;-76
2024/01/05 04:21:05;;;;;;;2.88;2.75;;;;;;;5.38;100.00;100057.63;5025300;28;20038;-76
2024/01/05 04:23:30;;;;;;;2.58;2.47;;;;;;;4.94;100.00;99974.63;5025495;28;20026;-76
2024/01/05 04:25:55;;;;;;;0.40;0.40;;;;;;;4.95;100.00;99981.53;5023180;28;20501;-77
2024/01/05 04:28:21;;;;;;;4.13;3.92;;;;;;;5.59;100.00;100097.84;5015734;28;20034;-77
2024/01/05 04:30:47;;;;;;;0.73;0.73;;;;;;;5.36;100.00;100072.34;5024719;28;20053;-76
2024/01/05 04:33:12;;;;;;;0.40;0.40;;;;;;;4.80;100.00;99978.69;5024691;28;20025;-76
2024/01/05 04:35:38;;;;;;;0.88;0.88;;;;;;;5.43;100.00;100073.31;5023557;28;20040;-76
2024/01/05 04:38:03;;;;;;;0.30;0.30;;;;;;;5.56;100.00;100096.06;5016258;28;20045;-77
2024/01/05 04:40:29;;;;;;;1.00;0.65;;;;;;;4.13;100.00;99859.84;5026163;28;20041;-76
2024/01/05 04:42:54;;;;;;;0.25;0.25;;;;;;;5.49;100.00;100074.28;5021346;28;20054;-75
2024/01/05 04:45:20;;;;;;;0.20;0.20;;;;;;;5.32;100.00;100034.13;5027247;28;20052;-77
2024/01/05 04:47:48;;;;;;;0.30;0.30;;;;;;;5.04;100.00;99976.50;5029829;28;20084;-78
2024/01/05 04:50:14;;;;;;;0.30;0.30;;;;;;;4.86;100.00;99973.59;5022284;28;20061;-77
2024/01/05 04:52:39;;;;;;;0.20;0.20;;;;;;;5.09;100.00;100002.56;5021219;28;20767;-76
2024/01/05 04:55:05;;;;;;;0.30;0.30;;;;;;;5.36;100.00;100061.94;5021462;28;20050;-77
2024/01/05 04:57:31;;;;;;;0.40;0.40;;;;;;;4.06;100.00;99833.75;5028886;28;20045;-76
2024/01/05 04:59:56;;;;;;;0.20;0.20;;;;;;;5.65;100.00;100105.75;5025708;28;20029;-77
2024/01/05 05:02:23;;;;;;;0.93;0.65;;;;;;;5.78;100.00;100119.81;5028235;28;20443;-76
2024/01/05 05:04:49;;;;;;;0.30;0.30;;;;;;;5.24;100.00;100028.81;5023553;28;20053;-76
2024/01/05 05:07:14;;;;;;;0.40;0.40;;;;;;;4.95;100.00;100017.06;5028676;28;20133;-77
2024/01/05 05:09:40;;;;;;;9.77;7.93;;;;;;;5.71;100.00;100131.84;5026589;28;20133;-78
2024/01/05 05:12:06;;;;;;;0.52;0.52;;;;;;;5.71;100.00;100124.03;5018783;28;20038;-78
2024/01/05 05:14:31;;;;;;;2.40;2.20;;;;;;;5.23;100.00;100032.25;5024279;28;20037;-77
2024/01/05 05:16:57;;;;;;;0.30;0.30;;;;;;;5.40;100.00;100060.25;5028434;28;20124;-78
2024/01/05 05:19:22;;;;;;;0.25;0.25;;;;;;;5.88;100.00;100122.56;5028069;28;20061;-76
2024/01/05 05:21:48;;;;;;;5.57;5.25;;;;;;;5.72;100.00;100111.06;5024482;28;20054;-76
2024/01/05 05:24:13;;;;;;;0.75;0.75;;;;;;;5.79;100.00;100129.38;5024795;28;20033;-79
2024/01/05 05:26:39;;;;;;;1.25;1.15;;;;;;;5.43;100.00;100053.38;5027576;28;20075;-77
2024/01/05 05:29:04;;;;;;;0.30;0.30;;;;;;;5.89;100.00;100139.94;5025328;28;20078;-76
2024/01/05 05:31:30;;;;;;;0.30;0.30;;;;;;;5.48;100.00;100061.25;5024351;28;20046;-77
2024/01/05 05:33:56;;;;;;;0.57;0.57;;;;;;;5.34;100.00;100032.44;5024040;28;20603;-78
2024/01/05 05:36:21;;;;;;;0.50;0.50;;;;;;;5.50;100.00;100083.84;5027156;28;20045;-79
2024/01/05 05:38:47;;;;;;;0.30;0.30;;;;;;;5.32;100.00;100057.53;5024559;28;20468;-76
2024/01/05 05:41:12;;;;;;;0.82;0.73;;;;;;;6.01;100.00;100175.72;5022031;28;20140;-76
2024/01/05 05:43:38;;;;;;;1.85;1.75;;;;;;;5.52;100.00;100076.03;5021177;28;20405;-78
2024/01/05 05:46:03;;;;;;;0.30;0.30;;;;;;;5.98;100.00;100144.44;5021831;28;20656;-76
2024/01/05 05:48:29;;;;;;;0.40;0.40;;;;;;;5.39;100.00;100067.19;5024356;28;20124;-78
2024/01/05 05:50:54;;;;;;;0.35;0.35;;;;;;;6.10;100.00;100183.69;5024301;28;20124;-77
2024/01/05 05:53:20;;;;;;;0.38;0.38;;;;;;;5.38;100.00;100062.81;5028405;28;20057;-75
2024/01/05 05:55:45;;;;;;;0.20;0.20;;;;;;;5.83;100.00;100147.69;5025090;28;20041;-81
2024/01/05 05:58:11;;;;;;;0.30;0.30;;;;;;;5.99;100.00;100158.34;5017952;28;20061;-78
2024/01/05 06:00:36;;;;;;;0.30;0.30;;;;;;;5.51;100.00;100076.91;5025375;28;20144;-79
2024/01/05 06:03:05;;;;;;;0.50;0.50;;;;;;;6.18;100.00;100190.72;5009377;28;20069;-77
2024/01/05 06:05:31;;;;;;;0.35;0.35;;;;;;;5.79;100.00;100119.84;5027824;28;20036;-76
2024/01/05 06:07:57;;;;;;;0.30;0.30;;;;;;;5.79;100.00;100119.84;5021890;28;20417;-76
2024/01/05 06:10:22;;;;;;;0.45;0.45;;;;;;;5.65;100.00;100097.94;5006301;28;20369;-76
2024/01/05 06:12:48;;;;;;;0.30;0.30;;;;;;;5.71;100.00;100100.59;5020661;28;20072;-76
2024/01/05 06:15:14;;;;;;;0.30;0.30;;;;;;;5.66;100.00;100105.75;5022837;28;20386;-78
2024/01/05 06:17:39;;;;;;;0.52;0.52;;;;;;;5.65;100.00;100110.94;5027555;28;20045;-77
2024/01/05 06:20:07;;;;;;;0.30;0.30;;;;;;;5.60;100.00;100086.59;5026716;28;20092;-76
2024/01/05 06:22:40;;;;;;;0.20;0.20;;;;;;;5.74;100.00;100118.03;5026230;28;20071;-77
2024/01/05 06:25:06;;;;;;;0.20;0.20;;;;;;;6.48;100.00;100232.84;5020101;28;20081;-77
2024/01/05 06:27:31;;;;;;;0.30;0.30;;;;;;;6.29;100.00;100186.53;5015724;28;20470;-76
2024/01/05 06:29:58;;;;;;;0.30;0.30;;;;;;;6.05;100.00;100151.47;5026179;28;20049;-78
2024/01/05 06:32:24;;;;;;;0.35;0.35;;;;;;;6.51;100.00;100232.91;5022765;28;20040;-76
2024/01/05 06:34:49;;;;;;;0.32;0.32;;;;;;;6.63;100.00;100240.00;5016317;28;20179;-78
2024/01/05 06:37:15;;;;;;;0.50;0.50;;;;;;;6.10;100.00;100134.19;5022541;28;20061;-77
2024/01/05 06:39:47;;;;;;;0.30;0.30;;;;;;;6.15;100.00;100131.63;5022084;28;20533;-77
2024/01/05 06:42:12;;;;;;;0.52;0.52;;;;;;;6.83;100.00;100236.75;5022340;28;20038;-77
2024/01/05 06:44:38;;;;;;;0.75;0.75;;;;;;;6.33;100.00;100137.09;5021811;28;20502;-77
2024/01/05 06:47:04;;;;;;;0.77;0.68;;;;;;;6.92;100.00;100216.00;5020642;28;20080;-77
2024/01/05 06:49:30;;;;;;;0.50;0.50;;;;;;;6.72;100.00;100161.91;5025755;28;20045;-78
2024/01/05 06:51:55;;;;;;;0.40;0.40;;;;;;;7.09;100.00;100227.50;5018271;28;20042;-79
2024/01/05 06:54:21;;;;;;;0.40;0.40;;;;;;;7.27;100.00;100232.06;5025623;28;20073;-77
2024/01/05 06:56:48;;;;;;;2.47;2.38;;;;;;;6.76;100.00;100149.75;5027082;28;20025;-78
2024/01/05 06:59:15;;;;;;;0.22;0.22;;;;;;;6.91;100.00;100175.16;5026272;28;20169;-77
2024/01/05 07:01:41;;;;;;;0.30;0.30;;;;;;;7.51;100.00;100259.25;5022125;28;20057;-76
2024/01/05 07:04:07;;;;;;;0.30;0.30;;;;;;;6.89;100.00;100141.22;5022531;28;20370;-78
2024/01/05 07:06:34;;;;;;;2.47;2.20;;;;;;;7.13;100.00;100173.63;5005204;28;20041;-76
2024/01/05 07:09:00;;;;;;;0.30;0.30;;;;;;;7.06;100.00;100156.16;5022785;28;20037;-77
2024/01/05 07:11:26;;;;;;;0.20;0.20;;;;;;;7.65;100.00;100241.13;5025000;28;20072;-77
2024/01/05 07:13:51;;;;;;;0.43;0.43;;;;;;;7.89;100.00;100277.03;5023938;28;20087;-77
2024/01/05 07:16:18;;;;;;;0.30;0.30;;;;;;;7.41;100.00;100200.88;5022836;28;20057;-76
2024/01/05 07:18:46;;;;;;;0.30;0.30;;;;;;;7.86;100.00;100269.16;5020371;28;20311;-77
2024/01/05 07:21:11;;;;;;;0.20;0.20;;;;;;;7.71;100.00;100252.50;5026029;28;20071;-78
2024/01/05 07:23:37;;;;;;;1.08;0.82;;;;;;;6.66;100.00;100051.47;5025978;28;20041;-77
2024/01/05 07:26:03;;;;;;;35.28;13.80;;;;;;;7.34;100.00;100168.63;5020615;28;20053;-77
2024/01/05 07:28:28;;;;;;;0.30;0.30;;;;;;;7.52;100.00;100182.72;5019574;28;20780;-77
2024/01/05 07:30:54;;;;;;;9.82;7.53;;;;;;;8.16;100.00;100282.47;5020642;28;20060;-77
2024/01/05 07:33:20;;;;;;;0.43;0.43;;;;;;;8.15;100.00;100278.13;5021024;28;20136;-78
2024/01/05 07:35:46;;;;;;;0.30;0.30;;;;;;;8.22;100.00;100300.81;5023329;28;20080;-77
2024/01/05 07:38:12;;;;;;;0.30;0.30;;;;;;;8.28;100.00;100293.88;5016731;28;20073;-76
2024/01/05 07:40:38;;;;;;;2.20;2.05;;;;;;;8.08;100.00;100288.50;5025930;28;20105;-77
2024/01/05 07:43:05;;;;;;;0.77;0.77;;;;;;;7.51;100.00;100209.66;5017364;28;20057;-78
2024/01/05 07:45:30;;;;;;;0.32;0.32;;;;;;;8.29;100.00;100327.00;5021765;28;20809;-78
2024/01/05 07:47:57;;;;;;;0.50;0.50;;;;;;;7.72;100.00;100220.28;5025844;28;20119;-76
2024/01/05 07:50:24;;;;;;;0.30;0.30;;;;;;;8.06;100.00;100275.44;5010235;28;20409;-77
2024/01/05 07:52:50;;;;;;;0.80;0.80;;;;;;;7.72;100.00;100233.34;5021099;28;20674;-77
2024/01/05 07:55:15;;;;;;;0.38;0.38;;;;;;;7.25;100.00;100146.78;5016438;28;20049;-77
2024/01/05 07:57:41;;;;;;;0.32;0.32;;;;;;;7.60;100.00;100222.81;5025334;28;20044;-77
2024/01/05 08:00:07;;;;;;;0.40;0.40;;;;;;;8.35;100.00;100337.50;5025679;28;20040;-77
2024/01/05 08:02:33;;;;;;;0.22;0.22;;;;;;;7.83;100.00;100268.28;5024962;28;20044;-77
2024/01/05 08:04:58;;;;;;;1.63;1.58;;;;;;;7.61;100.00;100245.47;5019054;28;20042;-76
2024/01/05 08:07:24;;;;;;;0.30;0.30;;;;;;;7.58;100.00;100268.91;5023593;28;20049;-77
2024/01/05 08:09:52;;;;;;;3.40;0.95;;;;;;;7.87;100.00;100323.19;5019803;28;20061;-78
2024/01/05 08:12:20;;;;;;;0.30;0.30;;;;;;;7.89;100.00;100310.97;5022264;28;20046;-77
2024/01/05 08:14:46;;;;;;;2.17;1.92;;;;;;;8.18;100.00;100366.13;5021642;28;20759;-76
2024/01/05 08:17:11;;;;;;;0.20;0.20;;;;;;;7.66;100.00;100256.81;5025416;28;20095;-78
2024/01/05 08:19:37;;;;;;;1.88;1.77;;;;;;;7.65;100.00;100260.25;5022816;28;20048;-77
2024/01/05 08:22:02;;;;;;;0.30;0.30;;;;;;;8.16;100.00;100362.63;5021273;28;20273;-79
2024/01/05 08:24:28;;;;;;;0.88;0.65;;;;;;;8.14;100.00;100336.47;5025221;28;21550;-76
2024/01/05 08:26:55;;;;;;;0.40;0.40;;;;;;;8.08;100.00;100335.53;5025757;28;20033;-77
2024/01/05 08:29:22;;;;;;;1.30;1.20;;;;;;;8.18;100.00;100340.00;5024906;28;20045;-77
2024/01/05 08:31:49;;;;;;;0.25;0.25;;;;;;;7.83;100.00;100272.63;5019463;28;20128;-75
2024/01/05 08:34:15;;;;;;;10.73;9.23;;;;;;;7.73;100.00;100237.72;5023019;28;20132;-77
2024/01/05 08:36:41;;;;;;;0.30;0.30;;;;;;;7.94;100.00;100257.94;5025301;28;20044;-76
2024/01/05 08:39:06;;;;;;;0.75;0.40;;;;;;;8.54;100.00;100356.84;5020968;28;20979;-78
2024/01/05 08:41:32;;;;;;;0.47;0.47;;;;;;;8.00;100.00;100268.41;5023518;28;20021;-76
2024/01/05 08:43:58;;;;;;;0.30;0.30;;;;;;;7.86;100.00;100232.59;5015480;28;20116;-76
2024/01/05 08:46:27;;;;;;;2.15;2.05;;;;;;;8.27;100.00;100266.88;5024329;28;20049;-76
2024/01/05 08:48:53;;;;;;;9.20;8.65;;;;;;;8.37;100.00;100270.44;5023406;28;20137;-77
2024/01/05 08:51:18;;;;;;;0.30;0.30;;;;;;;8.58;100.00;100291.50;5005374;28;20076;-77
2024/01/05 08:53:44;;;;;;;0.50;0.50;;;;;;;8.98;100.00;100354.53;5025892;28;20025;-76
2024/01/05 08:56:10;;;;;;;0.30;0.30;;;;;;;9.20;100.00;100367.72;5022831;28;20049;-78
2024/01/05 08:58:36;;;;;;;0.30;0.30;;;;;;;9.06;100.00;100352.84;5025849;28;20784;-76
2024/01/05 09:01:01;;;;;;;0.60;0.30;;;;;;;9.24;100.00;100357.28;5020078;28;20512;-77
2024/01/05 09:03:28;;;;;;;0.25;0.25;;;;;;;9.46;100.00;100365.25;5024240;28;20132;-78
2024/01/05 09:05:53;;;;;;;0.30;0.30;;;;;;;9.67;100.00;100359.19;5021828;28;20034;-77
2024/01/05 09:08:19;;;;;;;0.30;0.30;;;;;;;9.67;100.00;100340.88;4979607;28;20045;-77
2024/01/05 09:10:44;;;;;;;0.30;0.30;;;;;;;9.91;100.00;100369.72;5020942;28;20076;-77
2024/01/05 09:13:10;;;;;;;0.47;0.47;;;;;;;9.33;100.00;100256.94;5019666;28;20136;-77
2024/01/05 09:15:36;;;;;;;0.20;0.20;;;;;;;10.20;100.00;100374.13;5019941;28;20037;-77
2024/01/05 09:18:02;;;;;;;3.33;3.22;;;;;;;9.84;100.00;100284.09;5024577;28;20041;-76
2024/01/05 09:20:28;;;;;;;0.63;0.63;;;;;;;10.08;100.00;100306.81;5022691;28;20040;-76
2024/01/05 09:22:53;;;;;;;2.50;1.30;;;;;;;10.46;100.00;100354.94;5020857;28;20057;-79
2024/01/05 09:25:19;;;;;;;0.52;0.52;;;;;;;10.74;100.00;100395.16;5024340;28;20684;-77
2024/01/05 09:27:45;;;;;;;0.90;0.88;;;;;;;10.77;100.00;100376.78;5027502;28;20026;-79
2024/01/05 09:30:18;;;;;;;0.30;0.30;;;;;;;10.80;100.00;100353.16;5026053;28;20045;-76
2024/01/05 09:32:44;;;;;;;2.30;1.95;;;;;;;10.95;100.00;100344.34;5024872;28;20583;-79
2024/01/05 09:35:11;;;;;;;2.38;1.92;;;;;;;11.10;100.00;100373.22;5015721;28;20088;-77
2024/01/05 09:37:36;;;;;;;2.42;2.22;;;;;;;11.27;100.00;100353.91;5006647;28;20049;-77
2024/01/05 09:40:03;;;;;;;1.40;1.30;;;;;;;10.88;100.00;100264.75;5004891;28;20884;-79
2024/01/05 09:42:28;;;;;;;0.73;0.73;;;;;;;10.90;100.00;100249.88;5021281;28;20148;-79
2024/01/05 09:44:55;;;;;;;0.30;0.30;;;;;;;11.18;100.00;100294.38;5025067;28;20056;-76
2024/01/05 09:47:21;;;;;;;0.30;0.30;;;;;;;11.02;100.00;100250.69;5009637;28;20140;-77
2024/01/05 09:49:49;;;;;;;0.45;0.45;;;;;;;11.29;100.00;100287.34;5021467;28;20096;-76
2024/01/05 09:52:15;;;;;;;0.30;0.30;;;;;;;11.13;100.00;100234.00;5008631;28;20056;-77
2024/01/05 09:54:41;;;;;;;1.00;0.90;;;;;;;11.70;100.00;100327.41;5010501;28;20034;-77
2024/01/05 09:57:15;;;;;;;5.85;1.10;;;;;;;11.67;100.00;100299.38;5028980;28;20133;-77
2024/01/05 09:59:43;;;;;;;0.20;0.20;;;;;;;11.79;100.00;100336.09;5025668;28;20854;-77
2024/01/05 10:02:17;;;;;;;0.40;0.40;;;;;;;11.19;100.00;100222.59;5027795;28;20051;-79
2024/01/05 10:04:44;;;;;;;2.58;1.77;;;;;;;11.49;100.00;100255.69;5027021;28;20084;-77
2024/01/05 10:07:10;;;;;;;0.60;0.60;;;;;;;11.95;100.00;100330.78;5024466;28;20068;-78
2024/01/05 10:09:49;;;;;;;0.20;0.20;;;;;;;11.91;100.00;100302.75;5023951;28;20033;-78
2024/01/05 10:12:15;;;;;;;0.50;0.50;;;;;;;12.14;100.00;100321.00;5001234;28;20136;-77
2024/01/05 10:14:41;;;;;;;1.05;0.50;;;;;;;12.11;100.00;100300.84;5023055;28;20051;-77
2024/01/05 10:17:10;;;;;;;0.65;0.50;;;;;;;11.83;100.00;100289.66;5020621;28;20046;-77
2024/01/05 10:19:37;;;;;;;0.80;0.60;;;;;;;11.46;100.00;100200.53;5021739;28;20143;-77
2024/01/05 10:22:10;;;;;;;1.90;1.13;;;;;;;12.23;100.00;100305.16;5025804;28;20080;-77
2024/01/05 10:24:37;;;;;;;0.20;0.20;;;;;;;11.88;100.00;100263.34;5027118;28;20059;-77
2024/01/05 10:27:12;;;;;;;0.63;0.40;;;;;;;12.34;100.00;100326.97;5026381;28;20041;-76
2024/01/05 10:29:42;;;;;;;2.85;1.80;;;;;;;12.22;100.00;100287.59;5027034;28;20052;-79
2024/01/05 10:32:29;;;;;;;0.68;0.63;;;;;;;12.46;100.00;100331.25;5026092;28;20053;-77
2024/01/05 10:34:54;;;;;;;0.20;0.20;;;;;;;12.42;100.00;100319.88;5016574;28;20042;-77
2024/01/05 10:37:21;;;;;;;0.73;0.73;;;;;;;12.02;100.00;100254.47;5023435;28;20103;-77
2024/01/05 10:39:48;;;;;;;0.73;0.70;;;;;;;12.00;100.00;100216.78;5026731;28;20029;-78
2024/01/05 10:42:27;;;;;;;0.60;0.60;;;;;;;12.59;100.00;100316.22;5025519;28;20129;-77
2024/01/05 10:44:54;;;;;;;1.05;0.82;;;;;;;13.09;100.00;100299.88;5020391;28;20057;-77
2024/01/05 10:47:23;;;;;;;1.25;0.90;;;;;;;12.63;100.00;100220.53;5003964;28;20049;-78
2024/01/05 10:49:51;;;;;;;1.48;1.38;;;;;;;12.92;100.00;100228.06;5026943;28;20034;-76
2024/01/05 10:52:26;;;;;;;1.15;1.05;;;;;;;12.83;100.00;100234.34;5022914;28;20037;-78
2024/01/05 10:55:02;;;;;;;1.45;1.33;;;;;;;13.19;100.00;100240.03;5020224;28;20041;-78
2024/01/05 10:57:30;;;;;;;0.50;0.50;;;;;;;13.44;100.00;100300.34;5027273;28;20444;-78
2024/01/05 10:59:57;;;;;;;1.75;1.48;;;;;;;13.70;100.00;100292.94;5023411;28;20523;-79
2024/01/05 11:02:28;;;;;;;1.30;1.13;;;;;;;14.08;100.00;100312.56;5018978;28;20441;-78
2024/01/05 11:05:08;;;;;;;0.40;0.38;;;;;;;14.64;100.00;100304.59;5026638;28;20053;-77
2024/01/05 11:07:34;;;;;;;0.88;0.88;;;;;;;14.10;100.00;100228.13;5019446;28;20522;-79
2024/01/05 11:10:26;;;;;;;1.05;0.73;;;;;;;14.73;100.00;100306.22;5023473;28;20135;-77
2024/01/05 11:13:27;;;;;;;1.10;1.00;;;;;;;14.42;99.14;100230.19;5015649;28;20474;-79
2024/01/05 11:16:24;;;;;;;1.27;1.08;;;;;;;14.41;97.61;100232.84;5019590;28;20037;-78
2024/01/05 11:18:50;;;;;;;1.35;0.77;;;;;;;14.02;92.00;100315.28;5019884;28;20029;-76
2024/01/05 11:21:37;;;;;;;1.65;0.80;;;;;;;13.80;89.93;100246.19;5019900;28;20049;-77
2024/01/05 11:24:04;;;;;;;0.43;0.43;;;;;;;14.04;93.96;100312.63;5023593;28;20174;-77